Greenville, Virginia
Current Conditions -  °F | °C
As of 8:35 PM on Friday 21 Nov 2014 (Local Time) from KW13 Reporting Station
Clear Clear  
Wind Chill: -3°   Ceiling: Unl
Heat Index: -3°   Visibility: 10mi
Dew Point: -15°   Wind: 0mph
Humidity: 42%   Direction: NA
Pressure: 30.46"   Gusts: NA
Location:  38°N, 79.16°W
Report Text: KW13 220135Z AUTO 00000KT 10SM CLR M03/M15 A3046 RMK AO1 T10351148
Loading
Personal Weather Stations






























Interactive Weather Map New forecast layout! Learn more

10-Day Weather Forecast

Advertisements
Track Severe Weather on mobile